createdAt,value
2022-12-01T00:01:35.638Z,100.00
2022-12-01T00:04:05.419Z,100.00
2022-12-01T00:06:38.077Z,100.00
2022-12-01T00:09:23.679Z,100.00
2022-12-01T00:11:50.839Z,100.00
2022-12-01T00:14:23.015Z,100.00
2022-12-01T00:16:52.664Z,100.00
2022-12-01T00:19:25.174Z,100.00
2022-12-01T00:21:52.364Z,100.00
2022-12-01T00:24:20.012Z,100.00
2022-12-01T00:26:47.138Z,100.00
2022-12-01T00:29:14.468Z,100.00
2022-12-01T00:31:41.656Z,100.00
2022-12-01T00:34:25.336Z,100.00
2022-12-01T00:36:52.837Z,100.00
2022-12-01T00:39:21.382Z,100.00
2022-12-01T00:41:48.508Z,100.00
2022-12-01T00:44:15.846Z,100.00
2022-12-01T00:46:43.007Z,100.00
2022-12-01T00:49:12.779Z,100.00
2022-12-01T00:51:42.330Z,100.00
2022-12-01T00:54:09.636Z,100.00
2022-12-01T00:56:36.752Z,100.00
2022-12-01T00:59:06.372Z,100.00
2022-12-01T01:01:34.286Z,100.00
2022-12-01T01:04:03.673Z,100.00
2022-12-01T01:06:31.146Z,100.00
2022-12-01T01:08:58.379Z,100.00
2022-12-01T01:11:27.991Z,100.00
2022-12-01T01:14:02.244Z,100.00
2022-12-01T01:16:30.442Z,100.00
2022-12-01T01:19:00.251Z,100.00
2022-12-01T01:21:28.510Z,100.00
2022-12-01T01:23:56.392Z,100.00
2022-12-01T01:26:30.002Z,100.00
2022-12-01T01:29:03.963Z,100.00
2022-12-01T01:31:36.602Z,100.00
2022-12-01T01:34:06.405Z,100.00
2022-12-01T01:36:34.059Z,100.00
2022-12-01T01:39:04.222Z,100.00
2022-12-01T01:41:33.905Z,100.00
2022-12-01T01:44:05.509Z,100.00
2022-12-01T01:46:34.868Z,100.00
2022-12-01T01:49:07.909Z,100.00
2022-12-01T01:51:43.162Z,100.00
2022-12-01T01:54:23.700Z,100.00
2022-12-01T01:56:57.412Z,100.00
2022-12-01T01:59:32.041Z,100.00
2022-12-01T02:02:08.485Z,100.00
2022-12-01T02:04:41.633Z,100.00
2022-12-01T02:07:09.390Z,100.00
2022-12-01T02:09:36.660Z,100.00
2022-12-01T02:12:16.546Z,100.00
2022-12-01T02:15:17.743Z,100.00
2022-12-01T02:18:23.168Z,100.00
2022-12-01T02:20:50.381Z,100.00
2022-12-01T02:23:47.717Z,100.00
2022-12-01T02:26:52.701Z,100.00
2022-12-01T02:29:51.430Z,100.00
2022-12-01T02:32:46.107Z,100.00
2022-12-01T02:35:19.192Z,100.00
2022-12-01T02:37:56.875Z,100.00
2022-12-01T02:40:46.768Z,100.00
2022-12-01T02:43:27.837Z,100.00
2022-12-01T02:46:13.789Z,100.00
2022-12-01T02:48:46.461Z,100.00
2022-12-01T02:51:19.486Z,100.00
2022-12-01T02:53:49.574Z,100.00
2022-12-01T02:56:21.433Z,100.00
2022-12-01T02:58:48.562Z,100.00
2022-12-01T03:01:32.341Z,100.00
2022-12-01T03:04:18.414Z,100.00
2022-12-01T03:07:21.658Z,100.00
2022-12-01T03:10:04.912Z,100.00
2022-12-01T03:12:46.259Z,100.00
2022-12-01T03:15:39.075Z,100.00
2022-12-01T03:18:14.524Z,100.00
2022-12-01T03:21:15.047Z,100.00
2022-12-01T03:23:49.816Z,100.00
2022-12-01T03:26:21.892Z,100.00
2022-12-01T03:28:54.531Z,100.00
2022-12-01T03:31:35.182Z,100.00
2022-12-01T03:34:09.054Z,100.00
2022-12-01T03:36:48.014Z,100.00
2022-12-01T03:39:24.031Z,100.00
2022-12-01T03:42:01.384Z,100.00
2022-12-01T03:44:36.230Z,100.00
2022-12-01T03:47:10.754Z,100.00
2022-12-01T03:49:41.060Z,100.00
2022-12-01T03:52:26.961Z,100.00
2022-12-01T03:55:20.852Z,100.00
2022-12-01T03:58:01.647Z,100.00
2022-12-01T04:00:31.126Z,100.00
2022-12-01T04:03:05.790Z,100.00
2022-12-01T04:05:38.508Z,100.00
2022-12-01T04:08:08.172Z,100.00
2022-12-01T04:10:38.008Z,100.00
2022-12-01T04:13:05.096Z,100.00
2022-12-01T04:15:34.501Z,100.00
2022-12-01T04:18:04.440Z,100.00
2022-12-01T04:20:34.145Z,100.00
2022-12-01T04:23:01.285Z,100.00
2022-12-01T04:25:30.823Z,100.00
2022-12-01T04:28:00.702Z,100.00
2022-12-01T04:30:27.844Z,100.00
2022-12-01T04:32:55.373Z,100.00
2022-12-01T04:35:24.753Z,100.00
2022-12-01T04:37:52.046Z,100.00
2022-12-01T04:40:19.547Z,100.00
2022-12-01T04:42:50.805Z,100.00
2022-12-01T04:45:20.194Z,100.00
2022-12-01T04:47:52.912Z,100.00
2022-12-01T04:50:20.061Z,100.00
2022-12-01T04:52:47.349Z,100.00
2022-12-01T04:55:17.476Z,100.00
2022-12-01T04:57:47.117Z,100.00
2022-12-01T05:00:16.465Z,100.00
2022-12-01T05:02:46.147Z,100.00
2022-12-01T05:05:14.207Z,100.00
2022-12-01T05:07:45.954Z,100.00
2022-12-01T05:10:14.336Z,100.00
2022-12-01T05:12:48.915Z,100.00
2022-12-01T05:15:16.693Z,100.00
2022-12-01T05:17:46.175Z,100.00
2022-12-01T05:20:40.601Z,100.00
2022-12-01T05:23:10.811Z,100.00
2022-12-01T05:25:43.366Z,100.00
2022-12-01T05:28:12.823Z,100.00
2022-12-01T05:30:40.786Z,100.00
2022-12-01T05:33:10.396Z,100.00
2022-12-01T05:35:40.277Z,100.00
2022-12-01T05:38:09.687Z,100.00
2022-12-01T05:40:37.472Z,100.00
2022-12-01T05:43:07.028Z,100.00
2022-12-01T05:45:39.642Z,100.00
2022-12-01T05:48:09.744Z,100.00
2022-12-01T05:50:39.297Z,100.00
2022-12-01T05:53:07.296Z,100.00
2022-12-01T05:55:39.663Z,100.00
2022-12-01T05:58:09.592Z,100.00
2022-12-01T06:00:45.352Z,100.00
2022-12-01T06:03:14.390Z,100.00
2022-12-01T06:05:44.184Z,100.00
2022-12-01T06:08:11.621Z,100.00
2022-12-01T06:10:38.926Z,100.00
2022-12-01T06:13:08.612Z,100.00
2022-12-01T06:15:35.806Z,100.00
2022-12-01T06:18:06.074Z,100.00
2022-12-01T06:20:35.983Z,100.00
2022-12-01T06:23:06.002Z,100.00
2022-12-01T06:25:38.998Z,100.00
2022-12-01T06:28:10.887Z,100.00
2022-12-01T06:30:40.493Z,100.00
2022-12-01T06:33:11.351Z,100.00
2022-12-01T06:35:39.869Z,100.00
2022-12-01T06:38:08.079Z,100.00
2022-12-01T06:40:37.870Z,100.00
2022-12-01T06:43:09.811Z,100.00
2022-12-01T06:45:37.050Z,100.00
2022-12-01T06:48:07.412Z,100.00
2022-12-01T06:50:34.602Z,100.00
2022-12-01T06:53:02.724Z,100.00
2022-12-01T06:55:30.519Z,100.00
2022-12-01T07:00:52.431Z,100.00
2022-12-01T07:03:21.175Z,100.00
2022-12-01T07:05:59.416Z,100.00
2022-12-01T07:08:28.755Z,100.00
2022-12-01T07:11:08.242Z,100.00
2022-12-01T07:13:35.901Z,100.00
2022-12-01T07:16:07.783Z,100.00
2022-12-01T07:18:37.157Z,100.00
2022-12-01T07:21:08.888Z,100.00
2022-12-01T07:23:41.896Z,100.00
2022-12-01T07:26:14.873Z,100.00
2022-12-01T07:28:42.670Z,100.00
2022-12-01T07:31:18.041Z,100.00
2022-12-01T07:33:49.178Z,100.00
2022-12-01T07:36:18.216Z,100.00
2022-12-01T07:38:46.553Z,100.00
2022-12-01T07:41:16.813Z,100.00
2022-12-01T07:43:44.956Z,100.00
2022-12-01T07:46:22.245Z,100.00
2022-12-01T07:48:51.973Z,100.00
2022-12-01T07:51:19.976Z,100.00
2022-12-01T07:53:52.635Z,100.00
2022-12-01T07:56:26.142Z,100.00
2022-12-01T07:58:53.601Z,100.00
2022-12-01T08:01:23.584Z,100.00
2022-12-01T08:03:56.686Z,100.00
2022-12-01T08:06:26.345Z,100.00
2022-12-01T08:08:53.962Z,100.00
2022-12-01T08:11:27.364Z,100.00
2022-12-01T08:13:54.931Z,100.00
2022-12-01T08:16:26.761Z,100.00
2022-12-01T08:18:55.488Z,100.00
2022-12-01T08:21:24.768Z,100.00
2022-12-01T08:23:56.404Z,100.00
2022-12-01T08:26:24.759Z,100.00
2022-12-01T08:28:52.095Z,100.00
2022-12-01T08:31:51.447Z,100.00
2022-12-01T08:34:20.501Z,100.00
2022-12-01T08:36:51.500Z,100.00
2022-12-01T08:39:21.303Z,100.00
2022-12-01T08:41:49.366Z,100.00
2022-12-01T08:44:17.274Z,100.00
2022-12-01T08:46:51.105Z,100.00
2022-12-01T08:49:22.447Z,99.91
2022-12-01T08:51:50.495Z,100.00
2022-12-01T08:54:18.222Z,100.00
2022-12-01T08:56:48.005Z,99.90
2022-12-01T08:59:15.913Z,99.72
2022-12-01T09:01:57.536Z,99.71
2022-12-01T09:04:26.889Z,99.87
2022-12-01T09:06:56.731Z,99.65
2022-12-01T09:09:31.178Z,99.38
2022-12-01T09:12:01.040Z,99.69
2022-12-01T09:14:28.327Z,99.56
2022-12-01T09:16:58.791Z,99.53
2022-12-01T09:19:28.701Z,99.69
2022-12-01T09:22:04.053Z,99.43
2022-12-01T09:24:33.639Z,99.59
2022-12-01T09:27:01.260Z,99.54
2022-12-01T09:29:28.580Z,99.87
2022-12-01T09:31:59.287Z,100.00
2022-12-01T09:34:29.220Z,99.69
2022-12-01T09:36:58.958Z,99.76
2022-12-01T09:39:26.362Z,99.92
2022-12-01T09:42:16.261Z,100.00
2022-12-01T09:44:58.071Z,99.31
2022-12-01T09:47:31.827Z,99.04
2022-12-01T09:50:02.479Z,99.56
2022-12-01T09:52:38.385Z,99.13
2022-12-01T09:55:14.901Z,99.41
2022-12-01T09:57:45.387Z,99.13
2022-12-01T10:00:29.534Z,99.12
2022-12-01T10:03:12.102Z,98.72
2022-12-01T10:06:26.126Z,99.00
2022-12-01T10:08:55.392Z,99.43
2022-12-01T10:11:35.774Z,99.09
2022-12-01T10:14:04.364Z,99.35
2022-12-01T10:16:48.487Z,98.72
2022-12-01T10:19:26.198Z,98.43
2022-12-01T10:22:31.334Z,98.27
2022-12-01T10:25:19.364Z,98.09
2022-12-01T10:27:55.537Z,98.10
2022-12-01T10:30:24.691Z,98.19
2022-12-01T10:32:53.441Z,99.00
2022-12-01T10:35:23.655Z,99.63
2022-12-01T10:37:59.674Z,99.72
2022-12-01T10:40:27.969Z,99.50
2022-12-01T10:42:57.796Z,99.79
2022-12-01T10:45:30.552Z,99.80
2022-12-01T10:48:15.275Z,100.00
2022-12-01T10:50:51.478Z,100.00
2022-12-01T10:53:29.549Z,100.00
2022-12-01T10:56:05.982Z,100.00
2022-12-01T10:58:40.046Z,100.00
2022-12-01T11:01:07.299Z,100.00
2022-12-01T11:03:36.770Z,100.00
2022-12-01T11:06:07.846Z,100.00
2022-12-01T11:08:45.773Z,100.00
2022-12-01T11:11:29.148Z,100.00
2022-12-01T11:13:58.930Z,100.00
2022-12-01T11:16:39.115Z,100.00
2022-12-01T11:19:28.103Z,97.51
2022-12-01T11:22:00.814Z,92.77
2022-12-01T11:24:30.259Z,89.32
2022-12-01T11:26:59.382Z,88.39
2022-12-01T11:30:01.550Z,84.64
2022-12-01T11:32:32.507Z,82.12
2022-12-01T11:35:07.582Z,81.14
2022-12-01T11:37:54.788Z,78.57
2022-12-01T11:40:49.242Z,76.47
2022-12-01T11:43:28.229Z,75.66
2022-12-01T11:45:58.771Z,74.54
2022-12-01T11:48:31.630Z,74.10
2022-12-01T11:51:08.869Z,73.22
2022-12-01T11:53:43.194Z,72.55
2022-12-01T11:56:19.495Z,71.77
2022-12-01T11:58:49.070Z,70.72
2022-12-01T12:01:30.282Z,70.60
2022-12-01T12:04:19.251Z,72.75
2022-12-01T12:07:18.961Z,74.28
2022-12-01T12:10:19.284Z,75.54
2022-12-01T12:12:58.471Z,76.72
2022-12-01T12:15:42.060Z,77.66
2022-12-01T12:18:38.400Z,78.61
2022-12-01T12:21:17.799Z,79.50
2022-12-01T12:23:51.457Z,80.14
2022-12-01T12:26:25.380Z,80.70
2022-12-01T12:29:34.452Z,81.00
2022-12-01T12:32:16.419Z,81.62
2022-12-01T12:35:17.084Z,82.08
2022-12-01T12:38:27.549Z,82.39
2022-12-01T12:41:25.027Z,82.97
2022-12-01T12:43:52.208Z,83.54
2022-12-01T12:46:39.309Z,83.49
2022-12-01T12:49:26.410Z,83.80
2022-12-01T12:52:19.694Z,84.15
2022-12-01T12:55:12.069Z,84.47
2022-12-01T12:57:45.821Z,85.45
2022-12-01T13:00:17.150Z,86.15
2022-12-01T13:02:49.793Z,86.96
2022-12-01T13:05:23.178Z,87.72
2022-12-01T13:08:18.754Z,88.15
2022-12-01T13:10:53.850Z,88.84
2022-12-01T13:13:24.240Z,89.10
2022-12-01T13:15:54.883Z,89.77
2022-12-01T13:18:35.396Z,90.41
2022-12-01T13:21:04.819Z,90.88
2022-12-01T13:23:35.485Z,91.53
2022-12-01T13:26:08.107Z,92.10
2022-12-01T13:28:44.479Z,92.32
2022-12-01T13:31:14.768Z,92.88
2022-12-01T13:33:55.235Z,93.14
2022-12-01T13:36:45.750Z,90.45
2022-12-01T13:39:29.465Z,91.50
2022-12-01T13:42:09.191Z,92.22
2022-12-01T13:44:36.401Z,92.73
2022-12-01T13:47:29.362Z,93.14
2022-12-01T13:49:58.356Z,93.41
2022-12-01T13:52:30.569Z,93.67
2022-12-01T13:55:10.143Z,94.15
2022-12-01T13:57:57.329Z,94.57
2022-12-01T14:00:33.309Z,94.93
2022-12-01T14:03:13.234Z,95.57
2022-12-01T14:05:40.551Z,96.00
2022-12-01T14:08:48.149Z,96.01
2022-12-01T14:11:29.853Z,96.59
2022-12-01T14:14:13.065Z,96.81
2022-12-01T14:16:46.575Z,97.70
2022-12-01T14:19:32.813Z,97.85
2022-12-01T14:22:05.552Z,98.41
2022-12-01T14:24:44.642Z,98.74
2022-12-01T14:27:12.411Z,99.24
2022-12-01T14:29:44.467Z,99.19
2022-12-01T14:32:17.786Z,96.87
2022-12-01T14:34:46.119Z,96.95
2022-12-01T14:37:23.171Z,97.40
2022-12-01T14:40:08.382Z,97.76
2022-12-01T14:42:58.199Z,98.37
2022-12-01T14:45:48.829Z,98.44
2022-12-01T14:48:23.013Z,98.99
2022-12-01T14:50:54.403Z,99.26
2022-12-01T14:53:30.063Z,99.47
2022-12-01T14:56:01.907Z,99.86
2022-12-01T14:58:32.299Z,99.88
2022-12-01T15:01:12.657Z,99.87
2022-12-01T15:03:47.503Z,100.00
2022-12-01T15:06:23.547Z,100.00
2022-12-01T15:12:07.792Z,100.00
2022-12-01T15:14:38.546Z,100.00
2022-12-01T15:17:09.047Z,100.00
2022-12-01T15:19:44.160Z,100.00
2022-12-01T15:22:16.602Z,100.00
2022-12-01T15:24:45.942Z,100.00
2022-12-01T15:27:28.637Z,100.00
2022-12-01T15:29:58.394Z,100.00
2022-12-01T15:32:27.160Z,100.00
2022-12-01T15:34:56.291Z,100.00
2022-12-01T15:37:26.120Z,100.00
2022-12-01T15:43:13.157Z,99.08
2022-12-01T15:45:56.399Z,98.81
2022-12-01T15:48:28.056Z,98.68
2022-12-01T15:51:41.331Z,98.29
2022-12-01T15:54:22.860Z,97.69
2022-12-01T15:56:56.027Z,97.74
2022-12-01T15:59:28.710Z,97.58
2022-12-01T16:01:56.897Z,97.21
2022-12-01T16:04:32.510Z,97.31
2022-12-01T16:07:05.575Z,97.37
2022-12-01T16:09:58.819Z,97.24
2022-12-01T16:12:36.395Z,97.18
2022-12-01T16:15:10.089Z,97.24
2022-12-01T16:17:44.405Z,97.17
2022-12-01T16:20:42.310Z,96.89
2022-12-01T16:23:15.150Z,97.15
2022-12-01T16:25:45.475Z,97.18
2022-12-01T16:28:35.697Z,96.97
2022-12-01T16:31:06.986Z,97.27
2022-12-01T16:33:38.787Z,97.08
2022-12-01T16:36:06.898Z,97.42
2022-12-01T16:38:34.198Z,97.20
2022-12-01T16:41:17.054Z,97.23
2022-12-01T16:44:05.446Z,97.17
2022-12-01T16:46:32.587Z,97.26
2022-12-01T16:49:04.293Z,97.15
2022-12-01T16:51:54.205Z,97.14
2022-12-01T16:54:26.479Z,97.25
2022-12-01T16:56:53.736Z,97.24
2022-12-01T16:59:20.948Z,97.15
2022-12-01T17:01:48.561Z,97.32
2022-12-01T17:04:15.949Z,97.27
2022-12-01T17:06:43.396Z,97.17
2022-12-01T17:09:10.854Z,97.15
2022-12-01T17:11:38.302Z,97.35
2022-12-01T17:14:08.698Z,97.57
2022-12-01T17:16:37.069Z,97.25
2022-12-01T17:19:04.674Z,97.38
2022-12-01T17:21:31.970Z,97.25
2022-12-01T17:23:59.326Z,97.26
2022-12-01T17:26:26.755Z,97.00
2022-12-01T17:28:56.951Z,97.22
2022-12-01T17:31:24.538Z,97.28
2022-12-01T17:33:52.001Z,97.32
2022-12-01T17:36:19.465Z,97.35
2022-12-01T17:38:50.476Z,97.32
2022-12-01T17:41:42.705Z,97.29
2022-12-01T17:44:10.189Z,97.05
2022-12-01T17:46:53.021Z,97.00
2022-12-01T17:49:20.740Z,97.21
2022-12-01T17:52:00.432Z,96.96
2022-12-01T17:54:27.695Z,97.03
2022-12-01T17:56:54.875Z,97.12
2022-12-01T17:59:22.104Z,97.11
2022-12-01T18:01:49.485Z,97.02
2022-12-01T18:04:17.203Z,97.02
2022-12-01T18:06:46.885Z,96.87
2022-12-01T18:09:18.107Z,96.86
2022-12-01T18:11:47.021Z,96.69
2022-12-01T18:14:18.013Z,96.55
2022-12-01T18:16:46.256Z,95.54
2022-12-01T18:19:13.698Z,95.91
2022-12-01T18:21:43.761Z,96.98
2022-12-01T18:24:11.266Z,97.01
2022-12-01T18:26:40.586Z,97.21
2022-12-01T18:29:12.936Z,97.18
2022-12-01T18:31:40.773Z,97.32
2022-12-01T18:34:11.358Z,97.43
2022-12-01T18:37:08.729Z,97.46
2022-12-01T18:39:59.478Z,97.52
2022-12-01T18:43:30.118Z,97.69
2022-12-01T18:46:13.011Z,97.66
2022-12-01T18:49:05.091Z,97.69
2022-12-01T18:52:03.106Z,97.95
2022-12-01T18:54:30.893Z,97.95
2022-12-01T18:57:01.633Z,98.23
2022-12-01T18:59:29.572Z,98.02
2022-12-01T19:02:00.253Z,98.32
2022-12-01T19:04:30.986Z,98.63
2022-12-01T19:06:58.629Z,98.41
2022-12-01T19:09:25.996Z,98.69
2022-12-01T19:12:00.183Z,98.49
2022-12-01T19:14:28.428Z,98.64
2022-12-01T19:16:56.907Z,98.75
2022-12-01T19:19:24.391Z,98.74
2022-12-01T19:21:51.613Z,98.89
2022-12-01T19:24:20.097Z,98.92
2022-12-01T19:26:49.940Z,98.85
2022-12-01T19:29:17.235Z,98.98
2022-12-01T19:31:44.656Z,99.04
2022-12-01T19:34:13.394Z,99.04
2022-12-01T19:36:42.363Z,99.17
2022-12-01T19:39:10.004Z,99.07
2022-12-01T19:41:38.827Z,99.26
2022-12-01T19:44:06.373Z,99.23
2022-12-01T19:46:34.339Z,99.07
2022-12-01T19:49:02.193Z,99.23
2022-12-01T19:51:37.540Z,99.27
2022-12-01T19:54:10.985Z,99.34
2022-12-01T19:56:38.343Z,99.45
2022-12-01T19:59:13.570Z,99.49
2022-12-01T20:01:41.945Z,99.43
2022-12-01T20:04:10.781Z,99.40
2022-12-01T20:06:38.522Z,99.66
2022-12-01T20:09:17.897Z,99.61
2022-12-01T20:11:46.992Z,99.95
2022-12-01T20:14:20.481Z,100.00
2022-12-01T20:16:56.062Z,99.92
2022-12-01T20:19:23.717Z,99.91
2022-12-01T20:21:54.859Z,99.97
2022-12-01T20:24:23.631Z,100.00
2022-12-01T20:26:54.014Z,100.00
2022-12-01T20:29:25.592Z,100.00
2022-12-01T20:31:55.178Z,100.00
2022-12-01T20:34:26.707Z,100.00
2022-12-01T20:36:56.457Z,100.00
2022-12-01T20:39:24.929Z,100.00
2022-12-01T20:41:52.410Z,100.00
2022-12-01T20:44:22.053Z,100.00
2022-12-01T20:46:49.487Z,100.00
2022-12-01T20:49:19.978Z,100.00
2022-12-01T20:51:48.420Z,100.00
2022-12-01T20:54:27.939Z,100.00
2022-12-01T20:56:59.025Z,100.00
2022-12-01T20:59:27.598Z,100.00
2022-12-01T21:01:55.052Z,100.00
2022-12-01T21:04:26.397Z,100.00
2022-12-01T21:07:02.557Z,100.00
2022-12-01T21:09:29.888Z,100.00
2022-12-01T21:12:18.736Z,100.00
2022-12-01T21:14:55.010Z,100.00
2022-12-01T21:17:29.708Z,100.00
2022-12-01T21:20:12.967Z,100.00
2022-12-01T21:22:43.854Z,100.00
2022-12-01T21:25:16.931Z,100.00
2022-12-01T21:27:47.577Z,100.00
2022-12-01T21:30:25.300Z,100.00
2022-12-01T21:32:53.950Z,100.00
2022-12-01T21:35:24.711Z,100.00
2022-12-01T21:37:59.137Z,100.00
2022-12-01T21:40:29.286Z,100.00
2022-12-01T21:43:09.909Z,100.00
2022-12-01T21:45:39.284Z,100.00
2022-12-01T21:48:15.836Z,100.00
2022-12-01T21:50:43.643Z,100.00
2022-12-01T21:53:16.166Z,100.00
2022-12-01T21:55:46.482Z,100.00
2022-12-01T21:58:36.115Z,100.00
2022-12-01T22:01:15.257Z,100.00
2022-12-01T22:03:47.544Z,100.00
2022-12-01T22:06:29.818Z,100.00
2022-12-01T22:09:25.165Z,100.00
2022-12-01T22:11:56.507Z,100.00
2022-12-01T22:14:34.650Z,100.00
2022-12-01T22:17:10.866Z,100.00
2022-12-01T22:19:39.749Z,100.00
2022-12-01T22:22:13.301Z,100.00
2022-12-01T22:24:49.481Z,100.00
2022-12-01T22:27:48.904Z,100.00
2022-12-01T22:30:20.520Z,100.00
2022-12-01T22:32:59.978Z,100.00
2022-12-01T22:35:33.605Z,100.00
2022-12-01T22:38:25.643Z,100.00
2022-12-01T22:41:26.376Z,100.00
2022-12-01T22:43:59.701Z,100.00
2022-12-01T22:46:26.955Z,100.00
2022-12-01T22:49:00.092Z,100.00
2022-12-01T22:51:42.541Z,100.00
2022-12-01T22:54:12.333Z,100.00
2022-12-01T22:56:46.489Z,100.00
2022-12-01T22:59:28.207Z,100.00
2022-12-01T23:01:57.685Z,100.00
2022-12-01T23:04:32.329Z,100.00
2022-12-01T23:07:29.610Z,100.00
2022-12-01T23:10:10.969Z,100.00
2022-12-01T23:12:38.985Z,100.00
2022-12-01T23:15:32.453Z,100.00
2022-12-01T23:18:11.821Z,100.00
2022-12-01T23:20:40.382Z,100.00
2022-12-01T23:23:15.129Z,100.00
2022-12-01T23:25:43.576Z,100.00
2022-12-01T23:28:12.552Z,100.00
2022-12-01T23:30:43.068Z,100.00
2022-12-01T23:33:13.455Z,100.00
2022-12-01T23:35:57.926Z,100.00
2022-12-01T23:38:46.141Z,100.00
2022-12-01T23:41:25.732Z,100.00
2022-12-01T23:43:55.686Z,100.00
2022-12-01T23:46:25.556Z,100.00
2022-12-01T23:48:59.297Z,100.00
2022-12-01T23:51:31.371Z,100.00
2022-12-01T23:54:01.031Z,100.00
2022-12-01T23:56:31.843Z,100.00
2022-12-01T23:59:01.284Z,100.00
